Impacts TAF Board
For situational awareness. Not to be used for flight planning purposes.
IDs:

KGEG - Spokane Intl, WA, US

Issued at 0553 UTC 28 Sep 2021
Updated at 0942 UTC 28 Sep 2021
Potential Impact None Slight Moderate High
Time0853Z 28/10Z 28/11Z 28/12Z 28/13Z 28/14Z 28/15Z 28/16Z 28/17Z 28/18Z 28/19Z 28/20Z 28/21Z 28/22Z>>
Type OBS PRVL PRVL PRVL PRVL PRVL PRVL PRVL PRVL PRVL PRVL PRVL PRVL PRVL
VIS 4 >6 >6 >6 >6 >6 >6 >6 >6 >6 >6 >6 >6 >6
CIG 9 20 20 30 30 30 30 30 40 40 40 40 40 40
Cover OVC BKN BKN OVC OVC OVC OVC OVC BKN BKN BKN BKN BKN BKN
FltCat IFR MVFR MVFR MVFR MVFR MVFR MVFR MVFR VFR VFR VFR VFR VFR VFR
WX -RA BR -- -- -- -- -- -- -- -- -- -- -- -- --
WDir 190 200 200 200 200 200 200 200 220 220 220 220 220 220
WSpd 8 17 17 13 13 13 13 13 15 15 15 15 15 15
WGst -- 25 25 -- -- -- -- -- 20 20 20 20 20 20
Raw TAF
KGEG 280553Z 2806/2906 19010KT 5SM -RA BR SCT018 OVC035
  FM280700 20014G20KT 6SM -RA BR BKN018 OVC025
  FM280900 20017G25KT P6SM BKN020
  FM281200 20013KT P6SM SCT008 OVC030
  FM281700 22015G20KT P6SM SCT010 BKN040


Raw METAR
KGEG 280853Z 19008KT 4SM -RA BR BKN009 BKN016 OVC024 09/08 A2988 RMK AO2 SLP112 P0005 60013 T00890078 51013
KGEG 280845Z 20009KT 3SM -RA BR SCT009 BKN013 OVC024 09/08 A2988 RMK AO2 TWR VIS 4+ P0005 T00890078
KGEG 280832Z 19009KT 3SM RA BR FEW007 BKN024 OVC030 09/08 A2988 RMK AO2 TWR VIS 4+ P0002 T00890078
KGEG 280753Z 20011KT 10SM -RA SCT009 SCT029 OVC046 09/08 A2987 RMK AO2 SLP107 P0005 T00940078 402170094
KGEG 280653Z 20012KT 6SM -RA BR BKN009 BKN015 OVC041 09/08 A2987 RMK AO2 SLP110 P0003 T00940083

METAR Board
Radar Display
Forecast Discussion
For situational awareness. Not to be used for flight planning purposes.